createdAt,value
2018-11-13T00:02:04.657Z,11.90
2018-11-13T00:04:33.106Z,11.90
2018-11-13T00:07:04.646Z,11.90
2018-11-13T00:09:33.523Z,11.90
2018-11-13T00:12:01.430Z,11.90
2018-11-13T00:14:31.218Z,11.90
2018-11-13T00:16:59.204Z,11.90
2018-11-13T00:19:31.493Z,11.80
2018-11-13T00:22:14.601Z,11.80
2018-11-13T00:24:42.672Z,11.70
2018-11-13T00:27:13.131Z,11.70
2018-11-13T00:29:41.731Z,11.70
2018-11-13T00:32:09.610Z,11.70
2018-11-13T00:34:38.327Z,11.70
2018-11-13T00:37:06.375Z,11.70
2018-11-13T00:39:34.241Z,11.80
2018-11-13T00:42:03.397Z,11.80
2018-11-13T00:44:31.290Z,11.80
2018-11-13T00:47:00.064Z,11.80
2018-11-13T00:49:28.534Z,11.70
2018-11-13T00:51:56.468Z,11.70
2018-11-13T00:54:25.941Z,11.70
2018-11-13T00:56:53.906Z,11.60
2018-11-13T00:59:22.602Z,11.60
2018-11-13T01:01:52.131Z,11.50
2018-11-13T01:04:20.169Z,11.60
2018-11-13T01:06:49.573Z,11.60
2018-11-13T01:09:17.631Z,11.60
2018-11-13T01:11:46.438Z,11.60
2018-11-13T01:14:15.135Z,11.60
2018-11-13T01:16:42.994Z,11.60
2018-11-13T01:19:11.136Z,11.60
2018-11-13T01:21:39.246Z,11.70
2018-11-13T01:24:10.914Z,11.60
2018-11-13T01:26:39.688Z,11.60
2018-11-13T01:29:08.866Z,11.60
2018-11-13T01:31:39.093Z,11.70
2018-11-13T01:34:09.723Z,11.60
2018-11-13T01:36:38.432Z,11.60
2018-11-13T01:39:08.089Z,11.70
2018-11-13T01:41:45.627Z,11.70
2018-11-13T01:44:15.138Z,11.70
2018-11-13T01:46:43.072Z,11.70
2018-11-13T01:49:11.009Z,11.80
2018-11-13T01:51:39.041Z,11.80
2018-11-13T01:54:07.592Z,11.80
2018-11-13T01:56:35.463Z,11.80
2018-11-13T01:59:03.367Z,11.70
2018-11-13T02:01:34.941Z,11.70
2018-11-13T02:04:07.734Z,11.70
2018-11-13T02:06:35.683Z,11.80
2018-11-13T02:09:05.623Z,11.70
2018-11-13T02:11:34.943Z,11.70
2018-11-13T02:14:12.411Z,11.70
2018-11-13T02:16:40.339Z,11.70
2018-11-13T02:19:08.320Z,11.70
2018-11-13T02:21:36.187Z,11.70
2018-11-13T02:24:06.340Z,11.70
2018-11-13T02:26:34.329Z,11.70
2018-11-13T02:29:03.866Z,11.70
2018-11-13T02:31:32.045Z,11.60
2018-11-13T02:34:06.122Z,11.60
2018-11-13T02:36:35.506Z,11.60
2018-11-13T02:39:04.499Z,11.60
2018-11-13T02:41:34.703Z,11.60
2018-11-13T02:44:03.909Z,11.60
2018-11-13T02:46:32.308Z,11.60
2018-11-13T02:49:00.719Z,11.60
2018-11-13T02:51:28.711Z,11.60
2018-11-13T02:53:57.285Z,11.60
2018-11-13T02:56:26.533Z,11.60
2018-11-13T02:59:12.728Z,11.70
2018-11-13T03:01:41.246Z,11.70
2018-11-13T03:04:09.166Z,11.80
2018-11-13T03:06:37.820Z,11.70
2018-11-13T03:09:11.857Z,11.70
2018-11-13T03:11:41.662Z,11.70
2018-11-13T03:14:12.719Z,11.70
2018-11-13T03:16:41.345Z,11.70
2018-11-13T03:19:09.335Z,11.70
2018-11-13T03:21:40.778Z,11.70
2018-11-13T03:24:08.689Z,11.70
2018-11-13T03:26:36.653Z,11.70
2018-11-13T03:29:05.166Z,11.70
2018-11-13T03:31:33.227Z,11.70
2018-11-13T03:34:03.517Z,11.80
2018-11-13T03:36:31.410Z,11.80
2018-11-13T03:38:59.336Z,11.80
2018-11-13T03:41:27.389Z,11.80
2018-11-13T03:43:55.291Z,11.80
2018-11-13T03:46:23.728Z,11.80
2018-11-13T03:49:11.224Z,11.70
2018-11-13T03:51:39.179Z,11.70
2018-11-13T03:54:08.571Z,11.70
2018-11-13T03:56:37.501Z,11.70
2018-11-13T03:59:06.988Z,11.60
2018-11-13T04:01:37.029Z,11.60
2018-11-13T04:04:34.284Z,11.60
2018-11-13T04:07:18.824Z,11.60
2018-11-13T04:09:47.737Z,11.60
2018-11-13T04:12:15.768Z,11.50
2018-11-13T04:14:44.295Z,11.50
2018-11-13T04:17:12.186Z,11.40
2018-11-13T04:19:40.666Z,11.40
2018-11-13T04:22:09.960Z,11.40
2018-11-13T04:24:39.584Z,11.40
2018-11-13T04:27:07.469Z,11.40
2018-11-13T04:29:35.506Z,11.40
2018-11-13T04:32:06.468Z,11.30
2018-11-13T04:34:34.968Z,11.30
2018-11-13T04:37:06.689Z,11.30
2018-11-13T04:39:35.281Z,11.30
2018-11-13T04:42:04.297Z,11.20
2018-11-13T04:44:33.954Z,11.30
2018-11-13T04:47:07.218Z,11.30
2018-11-13T04:49:52.944Z,11.20
2018-11-13T04:52:45.287Z,11.20
2018-11-13T04:55:18.831Z,11.20
2018-11-13T04:57:49.433Z,11.20
2018-11-13T05:03:25.120Z,11.20
2018-11-13T05:06:03.056Z,11.30
2018-11-13T05:08:37.287Z,11.30
2018-11-13T05:11:06.632Z,11.30
2018-11-13T05:13:35.203Z,11.30
2018-11-13T05:16:05.851Z,11.30
2018-11-13T05:18:33.719Z,11.30
2018-11-13T05:21:03.785Z,11.30
2018-11-13T05:23:34.879Z,11.30
2018-11-13T05:26:02.876Z,11.30
2018-11-13T05:31:15.782Z,11.30
2018-11-13T05:34:04.769Z,11.30
2018-11-13T05:36:38.287Z,11.20
2018-11-13T05:39:08.230Z,11.20
2018-11-13T05:44:41.613Z,11.20
2018-11-13T05:47:09.750Z,11.10
2018-11-13T05:49:39.918Z,11.20
2018-11-13T05:52:08.000Z,11.20
2018-11-13T05:54:36.280Z,11.20
2018-11-13T05:57:13.587Z,11.10
2018-11-13T05:59:57.484Z,11.20
2018-11-13T06:02:39.351Z,11.10
2018-11-13T06:05:10.393Z,11.10
2018-11-13T06:07:38.297Z,11.10
2018-11-13T06:10:08.516Z,11.10
2018-11-13T06:12:37.625Z,11.10
2018-11-13T06:15:20.610Z,11.10
2018-11-13T06:17:57.498Z,11.00
2018-11-13T06:26:21.362Z,11.10
2018-11-13T06:31:48.898Z,11.00
2018-11-13T06:34:26.668Z,10.90
2018-11-13T06:37:01.113Z,10.90
2018-11-13T06:39:51.849Z,10.90
2018-11-13T06:46:35.610Z,10.80
2018-11-13T06:56:28.593Z,10.80
2018-11-13T06:59:08.052Z,10.80
2018-11-13T07:01:36.170Z,10.80
2018-11-13T07:04:27.998Z,10.80
2018-11-13T07:10:11.174Z,10.90
2018-11-13T07:12:40.948Z,10.90
2018-11-13T07:15:11.950Z,10.90
2018-11-13T07:17:43.556Z,10.90
2018-11-13T07:20:13.895Z,10.80
2018-11-13T07:22:44.493Z,10.80
2018-11-13T07:25:15.004Z,10.80
2018-11-13T07:27:47.381Z,10.80
2018-11-13T07:31:08.661Z,10.80
2018-11-13T07:33:41.805Z,10.80
2018-11-13T07:36:10.949Z,10.90
2018-11-13T07:38:41.696Z,10.90
2018-11-13T07:41:22.494Z,10.90
2018-11-13T07:43:50.999Z,10.80
2018-11-13T07:46:20.219Z,10.90
2018-11-13T07:48:48.277Z,10.90
2018-11-13T07:51:27.325Z,10.80
2018-11-13T07:54:00.649Z,10.80
2018-11-13T08:03:31.112Z,10.90
2018-11-13T08:06:08.466Z,10.90
2018-11-13T08:08:36.532Z,10.90
2018-11-13T08:11:13.244Z,11.00
2018-11-13T08:13:44.188Z,10.90
2018-11-13T08:16:12.157Z,10.90
2018-11-13T08:19:11.497Z,10.90
2018-11-13T08:21:42.661Z,10.90
2018-11-13T08:24:10.675Z,10.90
2018-11-13T08:26:56.917Z,10.90
2018-11-13T08:29:34.656Z,10.90
2018-11-13T08:32:04.607Z,10.80
2018-11-13T08:34:48.347Z,10.90
2018-11-13T08:37:17.502Z,10.80
2018-11-13T08:39:48.709Z,10.80
2018-11-13T08:42:23.675Z,10.80
2018-11-13T08:45:24.972Z,10.70
2018-11-13T08:47:57.432Z,10.80
2018-11-13T08:50:28.660Z,10.70
2018-11-13T08:53:01.471Z,10.70
2018-11-13T08:56:01.365Z,10.70
2018-11-13T08:58:30.325Z,10.70
2018-11-13T09:01:11.567Z,10.70
2018-11-13T09:03:40.235Z,10.80
2018-11-13T09:06:12.018Z,10.80
2018-11-13T09:08:42.365Z,10.80
2018-11-13T09:11:12.464Z,10.70
2018-11-13T09:13:40.345Z,10.80
2018-11-13T09:16:10.326Z,10.80
2018-11-13T09:18:40.114Z,10.80
2018-11-13T09:21:13.596Z,10.70
2018-11-13T09:23:42.611Z,10.70
2018-11-13T09:26:12.293Z,10.60
2018-11-13T09:28:49.819Z,10.50
2018-11-13T09:31:17.915Z,10.50
2018-11-13T09:33:47.247Z,10.50
2018-11-13T09:36:16.421Z,10.50
2018-11-13T09:38:44.961Z,10.50
2018-11-13T09:41:13.955Z,10.50
2018-11-13T09:43:47.977Z,10.50
2018-11-13T09:46:19.294Z,10.40
2018-11-13T09:48:57.067Z,10.50
2018-11-13T09:51:27.496Z,10.60
2018-11-13T09:53:55.573Z,10.60
2018-11-13T09:56:43.782Z,10.60
2018-11-13T09:59:21.768Z,10.60
2018-11-13T10:01:59.780Z,10.70
2018-11-13T10:04:29.323Z,10.70
2018-11-13T10:07:41.692Z,10.70
2018-11-13T10:10:28.579Z,10.80
2018-11-13T10:13:29.004Z,10.90
2018-11-13T10:16:31.813Z,11.00
2018-11-13T10:22:26.885Z,11.10
2018-11-13T10:31:46.492Z,11.00
2018-11-13T10:34:18.456Z,11.10
2018-11-13T10:36:46.679Z,11.20
2018-11-13T10:42:25.748Z,11.60
2018-11-13T10:45:32.925Z,11.70
2018-11-13T10:48:17.025Z,11.70
2018-11-13T10:56:54.730Z,12.20
2018-11-13T10:59:27.763Z,12.10
2018-11-13T11:02:07.592Z,12.20
2018-11-13T11:04:44.583Z,12.10
2018-11-13T11:07:21.945Z,12.00
2018-11-13T11:13:29.579Z,11.90
2018-11-13T11:16:00.526Z,11.90
2018-11-13T11:18:29.185Z,12.10
2018-11-13T11:21:04.558Z,12.10
2018-11-13T11:23:44.506Z,12.10
2018-11-13T11:26:12.301Z,12.00
2018-11-13T11:28:53.636Z,11.80
2018-11-13T11:31:34.193Z,11.80
2018-11-13T11:34:50.513Z,11.50
2018-11-13T11:37:23.676Z,11.30
2018-11-13T11:39:51.727Z,11.30
2018-11-13T11:42:21.250Z,11.30
2018-11-13T11:44:53.144Z,11.60
2018-11-13T11:50:51.738Z,11.90
2018-11-13T11:57:27.970Z,12.10
2018-11-13T12:00:11.420Z,12.00
2018-11-13T12:02:44.271Z,12.00
2018-11-13T12:11:02.260Z,12.10
2018-11-13T12:20:02.735Z,12.50
2018-11-13T12:26:39.323Z,12.40
2018-11-13T12:29:47.774Z,12.40
2018-11-13T12:32:33.582Z,12.10
2018-11-13T12:35:07.696Z,12.30
2018-11-13T12:37:39.750Z,12.10
2018-11-13T12:40:24.444Z,11.90
2018-11-13T12:42:55.146Z,11.90
2018-11-13T12:45:29.263Z,11.70
2018-11-13T12:48:05.587Z,11.80
2018-11-13T12:50:41.173Z,11.70
2018-11-13T12:53:25.039Z,11.60
2018-11-13T12:55:54.081Z,11.70
2018-11-13T12:58:47.325Z,11.70
2018-11-13T13:01:26.559Z,11.70
2018-11-13T13:04:27.217Z,11.70
2018-11-13T13:07:31.256Z,11.70
2018-11-13T13:10:53.757Z,11.60
2018-11-13T13:13:23.116Z,11.70
2018-11-13T13:18:49.640Z,11.60
2018-11-13T13:21:20.505Z,11.50
2018-11-13T13:24:17.735Z,11.50
2018-11-13T13:26:50.458Z,11.70
2018-11-13T13:29:18.374Z,12.00
2018-11-13T13:31:51.037Z,12.00
2018-11-13T13:38:15.605Z,11.90
2018-11-13T13:41:03.717Z,11.90
2018-11-13T13:44:03.292Z,11.80
2018-11-13T13:46:33.853Z,11.90
2018-11-13T13:49:10.211Z,11.90
2018-11-13T13:51:47.829Z,11.70
2018-11-13T13:54:27.100Z,11.70
2018-11-13T13:56:58.864Z,11.70
2018-11-13T13:59:28.830Z,11.80
2018-11-13T14:01:58.510Z,11.70
2018-11-13T14:04:33.052Z,11.60
2018-11-13T14:07:01.192Z,11.60
2018-11-13T14:09:29.249Z,11.50
2018-11-13T14:12:50.911Z,11.60
2018-11-13T14:16:10.312Z,11.60
2018-11-13T14:18:43.491Z,11.60
2018-11-13T14:21:13.565Z,11.50
2018-11-13T14:25:02.372Z,11.50
2018-11-13T14:28:34.491Z,11.50
2018-11-13T14:31:03.332Z,11.50
2018-11-13T14:33:33.833Z,11.50
2018-11-13T14:36:02.590Z,11.60
2018-11-13T14:38:36.009Z,11.60
2018-11-13T14:41:12.364Z,11.60
2018-11-13T14:44:00.499Z,11.70
2018-11-13T14:46:58.962Z,11.70
2018-11-13T14:49:45.601Z,11.70
2018-11-13T14:52:17.534Z,11.70
2018-11-13T15:05:04.981Z,11.50
2018-11-13T15:08:06.594Z,11.50
2018-11-13T15:13:59.239Z,11.50
2018-11-13T15:20:07.966Z,11.50
2018-11-13T15:23:01.736Z,11.40
2018-11-13T15:25:52.419Z,11.40
2018-11-13T15:28:23.578Z,11.50
2018-11-13T15:30:52.273Z,11.40
2018-11-13T15:34:28.513Z,11.40
2018-11-13T15:40:03.923Z,11.40
2018-11-13T15:42:33.106Z,11.30
2018-11-13T15:45:04.184Z,11.30
2018-11-13T15:47:32.107Z,11.30
2018-11-13T15:50:00.901Z,11.30
2018-11-13T15:52:31.093Z,11.20
2018-11-13T15:55:25.990Z,11.20
2018-11-13T16:01:12.939Z,11.10
2018-11-13T16:04:14.196Z,11.00
2018-11-13T16:07:11.482Z,10.90
2018-11-13T16:10:10.419Z,10.90
2018-11-13T16:12:57.618Z,10.90
2018-11-13T16:16:07.630Z,10.80
2018-11-13T16:18:54.540Z,10.80
2018-11-13T16:29:09.893Z,10.80
2018-11-13T16:38:34.073Z,10.90
2018-11-13T16:41:06.736Z,10.90
2018-11-13T16:43:36.312Z,10.90
2018-11-13T16:46:40.468Z,10.90
2018-11-13T16:49:15.531Z,11.00
2018-11-13T16:51:56.774Z,11.00
2018-11-13T16:55:21.527Z,10.90
2018-11-13T16:58:02.151Z,10.90
2018-11-13T17:00:42.171Z,10.90
2018-11-13T17:22:39.627Z,10.40
2018-11-13T17:25:12.972Z,10.30
2018-11-13T17:27:42.898Z,10.20
2018-11-13T17:30:19.254Z,10.20
2018-11-13T17:35:53.357Z,10.10
2018-11-13T17:38:21.683Z,10.00
2018-11-13T17:40:50.529Z,10.00
2018-11-13T17:44:07.020Z,10.00
2018-11-13T17:49:37.362Z,9.90
2018-11-13T17:52:40.497Z,9.90
2018-11-13T18:07:41.097Z,9.50
2018-11-13T18:10:17.388Z,9.40
2018-11-13T18:12:50.441Z,9.40
2018-11-13T18:19:09.775Z,9.30
2018-11-13T18:21:41.907Z,9.30
2018-11-13T18:24:11.888Z,9.30
2018-11-13T18:26:43.416Z,9.30
2018-11-13T18:29:13.781Z,9.30
2018-11-13T18:31:44.792Z,9.20
2018-11-13T18:34:14.776Z,9.20
2018-11-13T18:37:00.415Z,9.10
2018-11-13T18:43:09.532Z,9.00
2018-11-13T18:45:45.311Z,9.00
2018-11-13T18:48:17.204Z,8.90
2018-11-13T18:50:47.575Z,8.80
2018-11-13T18:54:01.326Z,8.80
2018-11-13T18:57:17.302Z,8.80
2018-11-13T18:59:46.894Z,8.70
2018-11-13T19:02:32.450Z,8.60
2018-11-13T19:05:17.651Z,8.70
2018-11-13T19:07:48.499Z,8.60
2018-11-13T19:14:05.672Z,8.60
2018-11-13T19:16:35.421Z,8.50
2018-11-13T19:19:12.663Z,8.50
2018-11-13T19:21:42.171Z,8.50
2018-11-13T19:24:34.767Z,8.40
2018-11-13T19:27:22.003Z,8.50
2018-11-13T19:32:37.569Z,8.40
2018-11-13T19:35:11.392Z,8.30
2018-11-13T19:37:48.515Z,8.40
2018-11-13T19:40:45.450Z,8.30
2018-11-13T19:49:03.967Z,8.30
2018-11-13T19:51:35.719Z,8.20
2018-11-13T19:54:07.157Z,8.20
2018-11-13T19:56:38.761Z,8.20
2018-11-13T19:59:06.859Z,8.20
2018-11-13T20:01:36.707Z,8.10
2018-11-13T20:04:08.045Z,8.10
2018-11-13T20:06:38.340Z,8.10
2018-11-13T20:09:24.611Z,8.10
2018-11-13T20:11:55.479Z,8.00
2018-11-13T20:14:23.360Z,8.10
2018-11-13T20:16:53.647Z,8.00
2018-11-13T20:19:29.306Z,8.00
2018-11-13T20:21:59.166Z,7.90
2018-11-13T20:30:59.371Z,7.90
2018-11-13T20:33:28.228Z,7.80
2018-11-13T20:35:59.540Z,7.80
2018-11-13T20:38:35.676Z,7.70
2018-11-13T20:41:03.895Z,7.70
2018-11-13T20:43:33.211Z,7.60
2018-11-13T20:46:07.838Z,7.60
2018-11-13T20:49:01.253Z,7.60
2018-11-13T20:51:46.173Z,7.70
2018-11-13T20:54:15.283Z,7.60
2018-11-13T20:56:44.748Z,7.60
2018-11-13T20:59:16.279Z,7.70
2018-11-13T21:01:44.357Z,7.70
2018-11-13T21:04:12.799Z,7.60
2018-11-13T21:06:41.756Z,7.60
2018-11-13T21:09:12.951Z,7.60
2018-11-13T21:11:43.085Z,7.60
2018-11-13T21:14:21.196Z,7.60
2018-11-13T21:16:51.227Z,7.60
2018-11-13T21:19:22.347Z,7.70
2018-11-13T21:21:53.523Z,7.70
2018-11-13T21:24:25.884Z,7.70
2018-11-13T21:27:00.929Z,7.80
2018-11-13T21:29:33.856Z,7.80
2018-11-13T21:32:14.777Z,7.80
2018-11-13T21:34:45.669Z,7.90
2018-11-13T21:37:16.719Z,7.80
2018-11-13T21:39:47.640Z,7.90
2018-11-13T21:42:16.489Z,7.90
2018-11-13T21:44:46.210Z,7.90
2018-11-13T21:47:14.056Z,7.90
2018-11-13T21:49:42.228Z,7.90
2018-11-13T21:52:14.968Z,7.90
2018-11-13T21:54:43.077Z,7.80
2018-11-13T21:57:34.780Z,7.70
2018-11-13T22:00:35.688Z,7.70
2018-11-13T22:03:17.501Z,7.60
2018-11-13T22:05:49.750Z,7.60
2018-11-13T22:08:28.710Z,7.60
2018-11-13T22:11:07.184Z,7.50
2018-11-13T22:13:46.797Z,7.50
2018-11-13T22:16:24.037Z,7.50
2018-11-13T22:18:53.310Z,7.40
2018-11-13T22:21:24.167Z,7.50
2018-11-13T22:23:54.350Z,7.50
2018-11-13T22:26:35.243Z,7.50
2018-11-13T22:29:07.812Z,7.50
2018-11-13T22:31:43.517Z,7.50
2018-11-13T22:34:14.009Z,7.50
2018-11-13T22:36:43.899Z,7.50
2018-11-13T22:39:19.561Z,7.50
2018-11-13T22:42:02.369Z,7.50
2018-11-13T22:44:36.067Z,7.50
2018-11-13T22:47:13.062Z,7.50
2018-11-13T22:49:42.525Z,7.40
2018-11-13T22:52:31.369Z,7.30
2018-11-13T22:55:01.902Z,7.30
2018-11-13T22:57:45.997Z,7.20
2018-11-13T23:00:20.357Z,7.20
2018-11-13T23:02:51.440Z,7.10
2018-11-13T23:05:23.341Z,7.10
2018-11-13T23:07:56.283Z,7.00
2018-11-13T23:10:26.073Z,7.00
2018-11-13T23:16:00.231Z,7.10
2018-11-13T23:18:30.291Z,7.10
2018-11-13T23:20:59.581Z,7.10
2018-11-13T23:23:28.739Z,7.00
2018-11-13T23:25:56.651Z,7.00
2018-11-13T23:28:26.894Z,6.90
2018-11-13T23:30:56.674Z,7.00
2018-11-13T23:33:27.885Z,7.00
2018-11-13T23:36:01.467Z,7.00
2018-11-13T23:38:31.340Z,7.00
2018-11-13T23:40:59.397Z,7.10
2018-11-13T23:43:32.185Z,7.10
2018-11-13T23:46:01.234Z,7.10
2018-11-13T23:48:32.513Z,7.10
2018-11-13T23:51:03.272Z,7.10
2018-11-13T23:53:34.320Z,7.00
2018-11-13T23:56:06.618Z,7.00
2018-11-13T23:58:39.942Z,7.00
